Time;durP1;ratioP1;P1;durP2;ratioP2;P2;SDS_P1;SDS_P2;PMS_P1;PMS_P2;Temp;Humidity;BMP_temperature;BMP_pressure;BME280_temperature;BME280_humidity;BME280_pressure;Samples;Min_cycle;Max_cycle;Signal;HPM_P1;HPM_P2
2024/01/14 00:02:59;;;;;;;23.50;10.27;;;5.20;88.20;;;;;;9175268;19;20056;-71
2024/01/14 00:06:09;;;;;;;31.70;11.60;;;5.20;88.20;;;;;;9167669;19;20026;-70
2024/01/14 00:09:15;;;;;;;21.42;10.55;;;5.20;88.20;;;;;;9172918;19;20364;-71
2024/01/14 00:12:23;;;;;;;20.42;11.27;;;5.20;88.30;;;;;;9173955;19;20022;-70
2024/01/14 00:15:28;;;;;;;23.63;10.80;;;5.20;88.30;;;;;;9172968;19;20348;-72
2024/01/14 00:18:36;;;;;;;21.55;9.73;;;5.20;88.20;;;;;;9168341;19;20490;-73
2024/01/14 00:21:44;;;;;;;25.23;12.00;;;5.20;88.30;;;;;;9174309;19;20484;-71
2024/01/14 00:24:52;;;;;;;23.75;11.10;;;5.20;88.30;;;;;;9174230;19;20019;-72
2024/01/14 00:27:57;;;;;;;25.33;12.40;;;5.20;88.40;;;;;;9171806;19;20019;-72
2024/01/14 00:31:05;;;;;;;24.45;11.63;;;5.20;88.40;;;;;;9174136;19;20372;-71
2024/01/14 00:34:11;;;;;;;24.48;12.65;;;5.20;88.30;;;;;;9174780;19;20098;-70
2024/01/14 00:37:23;;;;;;;22.52;11.77;;;5.20;88.40;;;;;;9173806;19;20031;-71
2024/01/14 00:40:29;;;;;;;29.20;12.15;;;5.20;88.40;;;;;;9172603;19;20025;-71
2024/01/14 00:43:37;;;;;;;21.60;11.07;;;5.20;88.50;;;;;;9173202;19;20019;-71
2024/01/14 00:46:42;;;;;;;25.25;12.10;;;5.20;88.30;;;;;;9172435;19;20022;-71
2024/01/14 00:49:50;;;;;;;24.80;11.50;;;5.20;88.40;;;;;;9181880;19;20029;-71
2024/01/14 00:52:58;;;;;;;23.58;10.77;;;5.20;88.40;;;;;;9182337;19;20022;-70
2024/01/14 00:56:07;;;;;;;24.17;11.60;;;5.20;88.40;;;;;;9182791;19;20377;-70
2024/01/14 00:59:12;;;;;;;21.08;10.18;;;5.20;88.40;;;;;;9182459;19;20432;-70
2024/01/14 01:02:20;;;;;;;20.63;10.60;;;5.20;88.40;;;;;;9182536;19;20019;-71
2024/01/14 01:05:35;;;;;;;20.95;9.73;;;5.20;89.10;;;;;;9182516;19;20011;-70
2024/01/14 01:08:46;;;;;;;32.13;10.32;;;5.20;88.40;;;;;;9178312;19;20018;-71
2024/01/14 01:11:51;;;;;;;18.38;9.43;;;5.20;88.50;;;;;;9181899;19;20027;-70
2024/01/14 01:15:00;;;;;;;18.05;9.10;;;5.20;88.50;;;;;;9182019;19;20488;-70
2024/01/14 01:18:07;;;;;;;17.80;9.65;;;5.20;88.50;;;;;;9177091;19;20769;-71
2024/01/14 01:21:20;;;;;;;19.52;9.45;;;5.20;88.50;;;;;;9182587;19;20086;-71
2024/01/14 01:24:29;;;;;;;17.25;8.90;;;5.20;88.60;;;;;;9182125;19;20026;-71
2024/01/14 01:27:36;;;;;;;28.05;9.93;;;5.20;88.50;;;;;;9179835;19;20360;-71
2024/01/14 01:30:42;;;;;;;25.58;10.45;;;5.20;88.50;;;;;;9182076;19;20035;-71
2024/01/14 01:33:50;;;;;;;28.60;10.82;;;5.20;88.60;;;;;;9179344;19;20017;-71
2024/01/14 01:36:56;;;;;;;24.23;10.45;;;5.20;88.60;;;;;;9181274;19;20365;-70
2024/01/14 01:40:09;;;;;;;20.27;8.93;;;5.20;88.60;;;;;;9180604;19;20113;-71
2024/01/14 01:43:15;;;;;;;29.45;10.70;;;5.20;88.60;;;;;;9178000;19;20037;-71
2024/01/14 01:46:23;;;;;;;23.83;9.43;;;5.20;88.50;;;;;;9178121;19;20030;-71
2024/01/14 01:49:30;;;;;;;19.55;10.18;;;5.20;88.60;;;;;;9176931;19;20022;-71
2024/01/14 01:52:38;;;;;;;20.38;9.68;;;5.20;88.50;;;;;;9179701;19;20021;-72
2024/01/14 01:55:46;;;;;;;20.20;9.10;;;5.20;88.60;;;;;;9178635;19;20018;-71
2024/01/14 01:58:55;;;;;;;22.35;9.55;;;5.20;88.60;;;;;;9177122;19;20021;-72
2024/01/14 02:02:01;;;;;;;19.75;9.38;;;5.20;88.50;;;;;;9180884;19;20021;-71
2024/01/14 02:05:10;;;;;;;21.35;8.70;;;5.20;88.50;;;;;;9179734;19;20016;-71
2024/01/14 02:08:16;;;;;;;18.05;8.55;;;5.20;88.50;;;;;;9175887;19;20018;-71
2024/01/14 02:11:26;;;;;;;18.25;7.47;;;5.20;88.50;;;;;;9177244;19;20067;-71
2024/01/14 02:14:31;;;;;;;24.17;8.88;;;5.20;88.50;;;;;;9180673;19;20017;-71
2024/01/14 02:17:39;;;;;;;15.80;7.90;;;5.20;88.50;;;;;;9175718;19;20023;-71
2024/01/14 02:20:45;;;;;;;20.55;8.07;;;5.20;88.50;;;;;;9179258;19;20018;-71
2024/01/14 02:23:59;;;;;;;18.35;7.50;;;5.20;88.50;;;;;;9179539;19;20402;-71
2024/01/14 02:27:07;;;;;;;17.10;8.52;;;5.20;88.40;;;;;;9177552;19;20052;-71
2024/01/14 02:30:15;;;;;;;16.83;7.07;;;5.20;88.40;;;;;;9175813;19;20018;-71
2024/01/14 02:33:21;;;;;;;17.27;7.68;;;5.20;88.40;;;;;;9179414;19;20006;-71
2024/01/14 02:36:29;;;;;;;22.27;7.85;;;5.20;88.40;;;;;;9179130;19;20484;-71
2024/01/14 02:39:36;;;;;;;20.45;7.43;;;5.10;88.40;;;;;;9178707;19;20029;-71
2024/01/14 02:42:46;;;;;;;20.88;7.72;;;5.10;88.30;;;;;;9179068;19;20011;-71
2024/01/14 02:45:52;;;;;;;20.15;7.75;;;5.10;88.30;;;;;;9178377;19;20006;-71
2024/01/14 02:49:00;;;;;;;21.50;7.30;;;5.10;88.30;;;;;;9176415;19;20027;-71
2024/01/14 02:52:06;;;;;;;18.23;6.80;;;5.10;88.30;;;;;;9177796;19;20029;-71
2024/01/14 02:55:13;;;;;;;13.68;6.80;;;5.10;88.30;;;;;;9178960;19;20011;-71
2024/01/14 02:58:21;;;;;;;17.58;6.95;;;5.00;88.30;;;;;;9179172;19;20014;-71
2024/01/14 03:01:29;;;;;;;19.65;5.82;;;5.00;88.30;;;;;;9177004;19;20388;-71
2024/01/14 03:04:35;;;;;;;19.80;5.53;;;5.00;88.40;;;;;;9175959;19;20026;-72
2024/01/14 03:07:43;;;;;;;15.38;5.70;;;5.00;88.30;;;;;;9174972;19;20015;-71
2024/01/14 03:10:48;;;;;;;19.10;5.30;;;5.00;88.30;;;;;;9175756;19;20019;-71
2024/01/14 03:13:58;;;;;;;19.65;5.10;;;5.00;88.30;;;;;;9177318;19;20369;-72
2024/01/14 03:17:04;;;;;;;16.00;4.70;;;5.00;88.30;;;;;;9172960;19;20014;-72
2024/01/14 03:20:12;;;;;;;8.77;3.78;;;5.00;88.30;;;;;;9176616;19;20019;-71
2024/01/14 03:23:18;;;;;;;10.63;3.78;;;5.00;88.30;;;;;;9176863;19;20022;-71
2024/01/14 03:26:25;;;;;;;13.98;3.67;;;5.00;88.30;;;;;;9176913;19;20737;-71
2024/01/14 03:29:33;;;;;;;18.20;5.13;;;4.90;88.20;;;;;;9175610;19;20026;-71
2024/01/14 03:32:41;;;;;;;10.63;3.50;;;4.90;88.20;;;;;;9176366;19;20014;-71
2024/01/14 03:35:47;;;;;;;11.32;3.88;;;4.90;88.20;;;;;;9176119;19;20029;-71
2024/01/14 03:38:54;;;;;;;14.80;3.38;;;4.90;88.30;;;;;;9176623;19;20018;-71
2024/01/14 03:42:00;;;;;;;12.65;2.90;;;4.90;88.30;;;;;;9174017;19;20029;-71
2024/01/14 03:45:11;;;;;;;8.43;3.60;;;4.90;88.30;;;;;;9177492;19;20010;-71
2024/01/14 03:48:16;;;;;;;17.00;3.88;;;4.80;88.30;;;;;;9176929;19;20021;-71
2024/01/14 03:51:24;;;;;;;12.68;3.03;;;4.90;88.30;;;;;;9175222;19;20026;-71
2024/01/14 03:54:30;;;;;;;7.30;2.63;;;4.80;88.20;;;;;;9175011;19;20030;-71
2024/01/14 03:57:38;;;;;;;11.07;2.55;;;4.80;88.20;;;;;;9176265;19;20022;-72
2024/01/14 04:00:46;;;;;;;14.73;3.05;;;4.80;88.30;;;;;;9173095;19;20029;-72
2024/01/14 04:03:53;;;;;;;7.88;2.67;;;4.80;88.30;;;;;;9173435;19;20016;-72
2024/01/14 04:06:59;;;;;;;10.65;3.20;;;4.80;88.30;;;;;;9170983;19;20037;-72
2024/01/14 04:10:08;;;;;;;11.20;3.83;;;4.80;88.30;;;;;;9172855;19;20362;-72
2024/01/14 04:13:15;;;;;;;11.73;3.40;;;4.80;88.30;;;;;;9174081;19;20019;-72
2024/01/14 04:16:25;;;;;;;9.13;2.90;;;4.80;88.40;;;;;;9171965;19;20020;-72
2024/01/14 04:19:30;;;;;;;14.60;3.05;;;4.80;88.40;;;;;;9175071;19;20021;-72
2024/01/14 04:22:38;;;;;;;9.48;3.08;;;4.80;88.40;;;;;;9172894;19;20014;-72
2024/01/14 04:25:43;;;;;;;12.27;3.67;;;4.80;88.40;;;;;;9174820;19;20030;-72
2024/01/14 04:28:51;;;;;;;10.65;2.95;;;4.80;88.40;;;;;;9174021;19;20010;-72
2024/01/14 04:32:00;;;;;;;11.30;3.60;;;4.80;88.40;;;;;;9175089;19;20015;-72
2024/01/14 04:35:08;;;;;;;7.47;2.95;;;4.80;88.40;;;;;;9174480;19;20525;-71
2024/01/14 04:38:14;;;;;;;11.50;3.10;;;4.90;88.50;;;;;;9174612;19;20093;-72
2024/01/14 04:41:21;;;;;;;10.93;2.88;;;4.90;88.40;;;;;;9173649;19;20015;-71
2024/01/14 04:44:27;;;;;;;12.18;4.15;;;4.80;88.40;;;;;;9173606;19;20018;-71
2024/01/14 04:47:37;;;;;;;11.60;3.70;;;4.90;88.40;;;;;;9174470;19;20027;-71
2024/01/14 04:50:43;;;;;;;10.30;4.20;;;4.80;88.30;;;;;;9173619;19;20013;-71
2024/01/14 04:53:51;;;;;;;10.90;4.00;;;4.80;88.30;;;;;;9173030;19;20084;-71
2024/01/14 04:56:57;;;;;;;8.70;3.30;;;4.90;88.30;;;;;;9172601;19;20472;-71
2024/01/14 05:00:05;;;;;;;9.38;3.10;;;4.80;88.30;;;;;;9171630;19;20018;-72
2024/01/14 05:03:14;;;;;;;8.05;4.13;;;4.80;88.30;;;;;;9172944;19;20015;-72
2024/01/14 05:06:21;;;;;;;11.60;3.45;;;4.80;88.30;;;;;;9172433;19;20014;-72
2024/01/14 05:09:27;;;;;;;13.25;4.10;;;4.80;88.40;;;;;;9172550;19;20017;-71
2024/01/14 05:12:35;;;;;;;16.25;3.97;;;4.80;88.40;;;;;;9174086;19;20496;-71
2024/01/14 05:15:40;;;;;;;19.20;4.80;;;4.80;88.40;;;;;;9172818;19;20494;-71
2024/01/14 05:18:50;;;;;;;10.48;4.53;;;4.80;88.50;;;;;;9173617;19;20022;-71
2024/01/14 05:21:56;;;;;;;14.05;5.15;;;4.80;88.50;;;;;;9174741;19;20365;-71
2024/01/14 05:25:04;;;;;;;16.73;6.07;;;4.80;88.50;;;;;;9172169;19;20019;-72
2024/01/14 05:28:09;;;;;;;17.77;6.43;;;4.90;88.60;;;;;;9172700;19;20496;-72
2024/01/14 05:31:18;;;;;;;18.60;8.95;;;4.90;88.50;;;;;;9168274;19;20029;-72
2024/01/14 05:34:27;;;;;;;21.23;9.10;;;4.90;88.50;;;;;;9177025;19;20025;-74
2024/01/14 05:37:34;;;;;;;25.40;10.50;;;4.90;88.50;;;;;;9181238;19;20023;-72
2024/01/14 05:40:40;;;;;;;31.17;11.43;;;4.90;88.40;;;;;;9181295;19;20042;-71
2024/01/14 05:43:47;;;;;;;28.58;11.45;;;4.90;88.50;;;;;;9181061;19;20377;-71
2024/01/14 05:46:53;;;;;;;33.30;12.63;;;4.90;88.50;;;;;;9180509;19;20484;-71
2024/01/14 05:50:03;;;;;;;31.38;12.80;;;4.90;88.40;;;;;;9179390;19;20023;-71
2024/01/14 05:53:08;;;;;;;30.50;13.13;;;4.90;88.40;;;;;;9180170;19;20945;-71
2024/01/14 05:56:25;;;;;;;33.38;12.48;;;4.90;88.40;;;;;;9180000;19;20018;-71
2024/01/14 05:59:33;;;;;;;35.10;13.25;;;4.80;88.30;;;;;;9180562;19;20022;-71
2024/01/14 06:02:41;;;;;;;33.75;13.40;;;4.90;88.40;;;;;;9180586;19;20866;-71
2024/01/14 06:05:49;;;;;;;28.77;12.38;;;4.80;88.40;;;;;;9180339;19;20013;-71
2024/01/14 06:09:00;;;;;;;32.00;13.18;;;4.80;88.40;;;;;;9178283;19;20019;-71
2024/01/14 06:12:06;;;;;;;37.13;12.95;;;4.80;88.40;;;;;;9176580;19;20514;-72
2024/01/14 06:15:14;;;;;;;40.75;13.45;;;4.80;88.40;;;;;;9178526;19;20015;-71
2024/01/14 06:18:19;;;;;;;30.15;13.35;;;4.80;88.40;;;;;;9175006;19;20031;-72
2024/01/14 06:21:29;;;;;;;31.00;12.52;;;4.80;88.40;;;;;;9179425;19;20021;-71
2024/01/14 06:24:35;;;;;;;30.15;12.82;;;4.80;88.50;;;;;;9180116;19;20033;-70
2024/01/14 06:27:48;;;;;;;35.90;12.55;;;4.80;88.40;;;;;;9177007;19;20025;-71
2024/01/14 06:30:54;;;;;;;30.75;12.75;;;4.80;88.40;;;;;;9177291;19;20445;-72
2024/01/14 06:34:02;;;;;;;35.30;12.48;;;4.80;88.40;;;;;;9179112;19;20014;-72
2024/01/14 06:37:10;;;;;;;33.72;13.07;;;4.80;88.50;;;;;;9178995;19;20022;-71
2024/01/14 06:40:18;;;;;;;30.98;13.13;;;4.80;88.50;;;;;;9178151;19;20022;-72
2024/01/14 06:43:36;;;;;;;29.40;13.25;;;4.80;88.60;;;;;;9178202;19;20016;-71
2024/01/14 06:46:45;;;;;;;28.17;13.02;;;4.70;88.50;;;;;;9176025;19;20018;-71
2024/01/14 06:49:52;;;;;;;29.40;12.73;;;4.70;88.50;;;;;;9175559;19;20457;-73
2024/01/14 06:53:16;;;;;;;24.50;12.75;;;4.80;88.60;;;;;;9176940;19;20022;-72
2024/01/14 06:56:21;;;;;;;36.40;15.07;;;4.80;88.50;;;;;;9176205;19;20466;-71
2024/01/14 06:59:29;;;;;;;33.00;14.13;;;4.70;88.50;;;;;;9177695;19;20019;-72
2024/01/14 07:02:34;;;;;;;36.00;15.13;;;4.80;88.50;;;;;;9176959;19;20021;-71
2024/01/14 07:05:42;;;;;;;40.50;16.00;;;4.70;88.50;;;;;;9177854;19;20019;-71
2024/01/14 07:08:50;;;;;;;39.35;16.02;;;4.70;88.50;;;;;;9177588;19;20100;-70
2024/01/14 07:11:58;;;;;;;38.45;16.15;;;4.70;88.50;;;;;;9176345;19;20488;-70
2024/01/14 07:15:03;;;;;;;37.40;16.63;;;4.70;88.60;;;;;;9176059;19;20596;-71
2024/01/14 07:18:11;;;;;;;40.15;16.17;;;4.70;88.50;;;;;;9173216;19;20018;-70
2024/01/14 07:21:23;;;;;;;38.78;16.85;;;4.70;88.50;;;;;;9175954;19;20019;-71
2024/01/14 07:24:33;;;;;;;46.03;16.65;;;4.60;88.50;;;;;;9177298;19;20465;-70
2024/01/14 07:27:39;;;;;;;36.85;16.48;;;4.60;88.60;;;;;;9176998;19;20052;-71
2024/01/14 07:30:46;;;;;;;41.85;17.58;;;4.60;88.60;;;;;;9176800;19;20018;-71
2024/01/14 07:33:52;;;;;;;44.47;18.20;;;4.60;88.60;;;;;;9175703;19;20094;-70
2024/01/14 07:37:01;;;;;;;39.22;18.40;;;4.60;88.60;;;;;;9174939;19;20603;-71
2024/01/14 07:40:10;;;;;;;46.42;17.98;;;4.60;88.60;;;;;;9176503;19;20015;-71
2024/01/14 07:43:17;;;;;;;42.33;18.92;;;4.60;88.60;;;;;;9175519;19;20014;-71
2024/01/14 07:46:25;;;;;;;43.63;19.30;;;4.60;88.60;;;;;;9174248;19;20022;-71
2024/01/14 07:49:33;;;;;;;41.80;18.35;;;4.60;88.60;;;;;;9176743;19;20017;-71
2024/01/14 07:52:38;;;;;;;47.45;18.95;;;4.50;88.50;;;;;;9174376;19;20455;-71
2024/01/14 07:55:49;;;;;;;40.20;17.65;;;4.50;89.20;;;;;;9173659;19;20369;-71
2024/01/14 07:58:56;;;;;;;43.22;18.27;;;4.50;88.60;;;;;;9174761;19;20014;-71
2024/01/14 08:02:04;;;;;;;48.33;19.50;;;4.50;88.60;;;;;;9176716;19;20026;-70
2024/01/14 08:05:11;;;;;;;51.45;20.50;;;4.50;88.60;;;;;;9175661;19;20469;-70
2024/01/14 08:08:20;;;;;;;39.63;18.23;;;4.50;88.70;;;;;;9174440;19;20018;-70
2024/01/14 08:11:33;;;;;;;49.05;18.40;;;4.50;88.70;;;;;;9173298;19;20650;-70
2024/01/14 08:14:41;;;;;;;45.28;19.55;;;4.50;88.70;;;;;;9173847;19;20019;-71
2024/01/14 08:17:48;;;;;;;40.70;18.20;;;4.50;88.60;;;;;;9169385;19;20019;-72
2024/01/14 08:20:55;;;;;;;40.92;18.40;;;4.50;88.60;;;;;;9172408;19;20018;-72
2024/01/14 08:24:03;;;;;;;41.40;17.85;;;4.50;88.60;;;;;;9173002;19;20030;-72
2024/01/14 08:27:14;;;;;;;49.72;18.52;;;4.50;88.60;;;;;;9174564;19;20034;-72
2024/01/14 08:30:19;;;;;;;43.40;17.65;;;4.40;88.50;;;;;;9174123;19;20056;-71
2024/01/14 08:33:27;;;;;;;42.40;18.15;;;4.50;88.60;;;;;;9173643;19;20495;-71
2024/01/14 08:36:33;;;;;;;39.53;18.00;;;4.50;88.60;;;;;;9171886;19;20608;-72
2024/01/14 08:39:41;;;;;;;43.55;18.30;;;4.50;88.70;;;;;;9175075;19;20018;-71
2024/01/14 08:42:49;;;;;;;41.50;18.13;;;4.50;88.60;;;;;;9173061;19;20018;-72
2024/01/14 08:45:57;;;;;;;48.28;20.80;;;4.50;88.60;;;;;;9174841;19;20019;-71
2024/01/14 08:49:02;;;;;;;42.95;18.98;;;4.50;88.60;;;;;;9173730;19;20050;-72
2024/01/14 08:52:11;;;;;;;48.47;20.15;;;4.50;88.60;;;;;;9172651;19;20018;-72
2024/01/14 08:55:16;;;;;;;44.40;18.65;;;4.50;88.60;;;;;;9174771;19;20443;-71
2024/01/14 08:58:27;;;;;;;48.58;19.83;;;4.50;88.60;;;;;;9174947;19;20602;-71
2024/01/14 09:01:32;;;;;;;44.45;19.45;;;4.50;88.60;;;;;;9173328;19;20492;-71
2024/01/14 09:04:40;;;;;;;47.78;20.15;;;4.40;88.60;;;;;;9172517;19;20018;-71
2024/01/14 09:07:46;;;;;;;47.05;19.00;;;4.50;88.60;;;;;;9169990;19;20018;-72
2024/01/14 09:10:53;;;;;;;46.30;19.75;;;4.40;88.60;;;;;;9182165;19;20761;-73
2024/01/14 09:14:02;;;;;;;41.00;17.45;;;4.40;88.70;;;;;;9177253;19;20014;-72
2024/01/14 09:17:09;;;;;;;42.25;19.05;;;4.40;88.70;;;;;;9178427;19;20031;-70
2024/01/14 09:20:15;;;;;;;43.67;19.40;;;4.40;88.60;;;;;;9182138;19;20476;-71
2024/01/14 09:23:23;;;;;;;43.35;18.95;;;4.50;88.70;;;;;;9183379;19;20014;-71
2024/01/14 09:26:28;;;;;;;48.35;19.00;;;4.40;88.60;;;;;;9181941;19;20014;-71
2024/01/14 09:29:38;;;;;;;46.55;19.95;;;4.40;88.50;;;;;;9179547;19;20015;-70
2024/01/14 09:32:44;;;;;;;47.17;18.77;;;4.40;88.60;;;;;;9180528;19;20011;-70
2024/01/14 09:35:52;;;;;;;45.40;19.17;;;4.40;88.50;;;;;;9182804;19;20018;-70
2024/01/14 09:38:57;;;;;;;49.83;18.83;;;4.40;88.60;;;;;;9178033;19;20022;-72
2024/01/14 09:42:11;;;;;;;43.35;17.38;;;4.40;88.60;;;;;;9178686;19;20014;-70
2024/01/14 09:45:21;;;;;;;40.28;17.33;;;4.40;88.70;;;;;;9180080;19;20014;-71
2024/01/14 09:48:38;;;;;;;38.25;17.50;;;4.40;88.70;;;;;;9180187;19;20247;-71
2024/01/14 09:51:44;;;;;;;41.95;17.65;;;4.40;88.70;;;;;;9176380;19;20018;-72
2024/01/14 09:54:52;;;;;;;45.60;19.25;;;4.40;88.70;;;;;;9177274;19;20003;-71
2024/01/14 09:58:00;;;;;;;41.88;17.27;;;4.40;88.70;;;;;;9176087;19;20090;-71
2024/01/14 10:01:12;;;;;;;44.70;18.02;;;4.40;88.70;;;;;;9179667;19;20011;-70
2024/01/14 10:04:20;;;;;;;34.28;15.25;;;4.40;88.70;;;;;;9179854;19;20013;-71
2024/01/14 10:07:29;;;;;;;38.33;14.70;;;4.40;88.70;;;;;;9178352;19;20488;-70
2024/01/14 10:10:34;;;;;;;41.85;16.30;;;4.30;88.60;;;;;;9179391;19;20018;-70
2024/01/14 10:13:42;;;;;;;41.63;16.10;;;4.30;88.60;;;;;;9177496;19;20022;-71
2024/01/14 10:16:50;;;;;;;36.35;16.05;;;4.30;89.30;;;;;;9174353;19;20460;-70
2024/01/14 10:20:02;;;;;;;42.47;16.63;;;4.30;88.70;;;;;;9177127;19;20018;-71
2024/01/14 10:23:08;;;;;;;42.45;16.95;;;4.30;88.70;;;;;;9178591;19;20077;-71
2024/01/14 10:26:17;;;;;;;35.35;16.02;;;4.30;88.80;;;;;;9180150;19;20034;-72
2024/01/14 10:29:23;;;;;;;39.42;15.45;;;4.30;88.80;;;;;;9179109;19;20049;-70
2024/01/14 10:32:35;;;;;;;35.75;14.73;;;4.30;88.80;;;;;;9177283;19;20495;-70
2024/01/14 10:36:00;;;;;;;39.33;15.23;;;4.30;88.80;;;;;;9174227;19;20373;-70
2024/01/14 10:39:10;;;;;;;39.80;15.90;;;4.30;88.80;;;;;;9173989;19;20014;-72
2024/01/14 10:42:16;;;;;;;34.00;15.15;;;4.30;88.80;;;;;;9173847;19;20011;-72
2024/01/14 10:45:24;;;;;;;37.72;15.32;;;4.30;88.80;;;;;;9172513;19;20014;-72
2024/01/14 10:48:40;;;;;;;43.35;16.90;;;4.30;88.80;;;;;;9177429;19;20594;-72
2024/01/14 10:51:54;;;;;;;41.35;18.00;;;4.30;88.90;;;;;;9178290;19;20022;-72
2024/01/14 10:55:05;;;;;;;44.75;17.73;;;4.20;88.80;;;;;;9173787;19;20044;-72
2024/01/14 10:58:20;;;;;;;36.15;15.98;;;4.30;89.20;;;;;;9178425;19;20014;-71
2024/01/14 11:01:27;;;;;;;45.25;16.83;;;4.20;88.70;;;;;;9175608;19;20066;-72
2024/01/14 11:04:38;;;;;;;43.53;17.60;;;4.30;88.80;;;;;;9177579;19;20026;-72
2024/01/14 11:07:44;;;;;;;38.53;15.93;;;4.20;88.80;;;;;;9175382;19;20044;-72
2024/01/14 11:10:54;;;;;;;38.85;16.42;;;4.20;88.80;;;;;;9177889;19;20015;-72
2024/01/14 11:14:08;;;;;;;34.72;15.80;;;4.20;88.80;;;;;;9173829;19;20704;-73
2024/01/14 11:17:28;;;;;;;41.47;17.55;;;4.20;88.90;;;;;;9172359;19;20018;-72
2024/01/14 11:20:39;;;;;;;41.42;15.60;;;4.30;89.00;;;;;;9176810;19;20018;-73
2024/01/14 11:24:08;;;;;;;37.15;15.38;;;4.20;88.90;;;;;;9175797;19;20485;-72
2024/01/14 11:27:15;;;;;;;37.20;15.50;;;4.30;89.00;;;;;;9173232;19;20030;-72
2024/01/14 11:30:53;;;;;;;40.38;17.05;;;4.20;88.90;;;;;;9173142;19;20011;-72
2024/01/14 11:33:59;;;;;;;37.10;16.23;;;4.20;89.00;;;;;;9172304;19;20471;-72
2024/01/14 11:37:09;;;;;;;47.17;17.65;;;4.30;89.00;;;;;;9177345;19;20018;-72
2024/01/14 11:40:29;;;;;;;42.72;15.63;;;4.30;89.00;;;;;;9176130;19;20018;-71
2024/01/14 11:43:42;;;;;;;49.85;19.70;;;4.30;89.00;;;;;;9176749;19;20022;-72
2024/01/14 11:46:48;;;;;;;42.08;17.08;;;4.30;88.90;;;;;;9175449;19;20015;-72
2024/01/14 11:50:00;;;;;;;46.90;19.02;;;4.30;88.90;;;;;;9176142;19;20017;-69
2024/01/14 11:53:12;;;;;;;39.95;17.02;;;4.30;88.90;;;;;;9176163;19;20010;-69
2024/01/14 11:56:31;;;;;;;43.63;17.92;;;4.30;89.00;;;;;;9173158;19;20014;-71
2024/01/14 11:59:37;;;;;;;43.72;18.48;;;4.30;88.90;;;;;;9175685;19;20021;-70
2024/01/14 12:02:49;;;;;;;44.38;17.17;;;4.30;88.90;;;;;;9174569;19;20503;-70
2024/01/14 12:05:54;;;;;;;41.35;17.08;;;4.30;89.00;;;;;;9175416;19;20014;-70
2024/01/14 12:09:05;;;;;;;44.05;18.67;;;4.30;89.00;;;;;;9174546;19;20021;-71
2024/01/14 12:12:12;;;;;;;43.67;17.88;;;4.30;89.00;;;;;;9175090;19;20022;-71
2024/01/14 12:15:21;;;;;;;42.90;17.67;;;4.30;89.00;;;;;;9169401;19;20032;-75
2024/01/14 12:18:26;;;;;;;43.00;19.00;;;4.30;89.00;;;;;;9167820;19;20026;-69
2024/01/14 12:21:35;;;;;;;47.17;18.33;;;4.30;89.00;;;;;;9171806;19;20011;-72
2024/01/14 12:24:45;;;;;;;45.40;19.25;;;4.30;89.10;;;;;;9171771;19;20023;-70
2024/01/14 12:27:53;;;;;;;45.25;17.23;;;4.30;89.10;;;;;;9170295;19;20083;-69
2024/01/14 12:31:00;;;;;;;46.28;18.35;;;4.30;89.10;;;;;;9168322;19;20035;-70
2024/01/14 12:34:08;;;;;;;42.28;17.85;;;4.40;89.10;;;;;;9171716;19;20015;-69
2024/01/14 12:37:13;;;;;;;43.63;17.83;;;4.40;89.10;;;;;;9173424;19;20018;-70
2024/01/14 12:40:24;;;;;;;44.55;17.02;;;4.40;89.10;;;;;;9172791;19;20018;-69
2024/01/14 12:43:30;;;;;;;39.13;16.77;;;4.40;89.10;;;;;;9174403;19;20364;-70
2024/01/14 12:46:37;;;;;;;45.22;17.42;;;4.40;89.10;;;;;;9183922;19;20500;-70
2024/01/14 12:49:56;;;;;;;46.63;19.17;;;4.40;89.10;;;;;;9182309;19;20031;-70
2024/01/14 12:53:06;;;;;;;49.72;18.85;;;4.30;89.10;;;;;;9182310;19;20475;-70
2024/01/14 12:56:17;;;;;;;45.45;17.88;;;4.40;89.20;;;;;;9183268;19;20021;-70
2024/01/14 12:59:25;;;;;;;43.30;18.60;;;4.40;89.90;;;;;;9183249;19;20429;-72
2024/01/14 13:02:31;;;;;;;43.22;18.48;;;4.30;89.20;;;;;;9182974;19;20018;-72
2024/01/14 13:05:38;;;;;;;47.90;19.67;;;4.40;89.20;;;;;;9183342;19;20018;-72
2024/01/14 13:08:44;;;;;;;45.38;19.75;;;4.40;89.20;;;;;;9181078;19;20082;-73
2024/01/14 13:11:54;;;;;;;48.20;18.48;;;4.40;89.20;;;;;;9181122;19;20602;-73
2024/01/14 13:15:00;;;;;;;46.28;20.00;;;4.40;89.20;;;;;;9179802;19;20074;-73
2024/01/14 13:18:08;;;;;;;45.92;18.15;;;4.40;89.20;;;;;;9177670;19;20014;-73
2024/01/14 13:21:15;;;;;;;44.75;19.27;;;4.40;89.20;;;;;;9181262;19;20022;-73
2024/01/14 13:24:22;;;;;;;41.50;17.85;;;4.50;89.30;;;;;;9177732;19;20018;-73
2024/01/14 13:27:34;;;;;;;47.55;18.88;;;4.50;89.30;;;;;;9181101;19;20145;-73
2024/01/14 13:30:43;;;;;;;39.38;17.88;;;4.50;89.30;;;;;;9181795;19;20014;-73
2024/01/14 13:33:49;;;;;;;45.22;19.70;;;4.50;89.20;;;;;;9179277;19;20078;-73
2024/01/14 13:37:09;;;;;;;40.38;17.30;;;4.50;89.30;;;;;;9180791;19;20018;-74
2024/01/14 13:40:16;;;;;;;39.33;16.95;;;4.50;89.30;;;;;;9181115;19;20026;-72
2024/01/14 13:43:27;;;;;;;37.65;16.30;;;4.50;89.20;;;;;;9179625;19;20014;-72
2024/01/14 13:46:34;;;;;;;40.03;17.00;;;4.50;89.20;;;;;;9181399;19;20021;-72
2024/01/14 13:49:42;;;;;;;38.63;16.70;;;4.50;89.20;;;;;;9179372;19;20015;-72
2024/01/14 13:52:48;;;;;;;37.38;15.77;;;4.50;89.30;;;;;;9176992;19;20487;-72
2024/01/14 13:55:55;;;;;;;39.25;16.70;;;4.50;89.20;;;;;;9174654;19;20484;-72
2024/01/14 13:59:03;;;;;;;38.25;15.82;;;4.50;89.20;;;;;;9181526;19;20015;-73
2024/01/14 14:02:15;;;;;;;38.08;16.35;;;4.60;89.30;;;;;;9181512;19;20753;-72
2024/01/14 14:05:21;;;;;;;39.53;15.70;;;4.60;89.30;;;;;;9179600;19;20018;-73
2024/01/14 14:08:28;;;;;;;34.33;16.27;;;4.60;89.20;;;;;;9176965;19;20018;-73
2024/01/14 14:11:34;;;;;;;41.17;15.93;;;4.60;89.20;;;;;;9178376;19;20022;-73
2024/01/14 14:14:45;;;;;;;39.30;15.48;;;4.60;89.20;;;;;;9177725;19;20014;-74
2024/01/14 14:17:50;;;;;;;37.53;16.40;;;4.60;89.20;;;;;;9175507;19;20015;-73
2024/01/14 14:21:02;;;;;;;43.90;16.45;;;4.60;89.20;;;;;;9177322;19;20018;-72
2024/01/14 14:24:07;;;;;;;37.05;16.88;;;4.60;89.20;;;;;;9178758;19;20047;-73
2024/01/14 14:27:17;;;;;;;40.00;16.55;;;4.60;89.20;;;;;;9178415;19;20022;-72
2024/01/14 14:30:29;;;;;;;43.22;16.50;;;4.60;89.20;;;;;;9179590;19;20026;-74
2024/01/14 14:33:37;;;;;;;38.75;17.00;;;4.60;89.20;;;;;;9179419;19;20007;-73
2024/01/14 14:36:42;;;;;;;39.25;16.30;;;4.50;89.20;;;;;;9176422;19;20018;-72
2024/01/14 14:39:50;;;;;;;41.15;16.52;;;4.50;89.20;;;;;;9178651;19;20018;-72
2024/01/14 14:42:56;;;;;;;39.03;16.40;;;4.50;89.30;;;;;;9179902;19;20014;-73
2024/01/14 14:46:07;;;;;;;43.45;17.00;;;4.50;89.30;;;;;;9179636;19;20048;-72
2024/01/14 14:49:13;;;;;;;43.13;17.08;;;4.50;89.30;;;;;;9179030;19;20020;-72
2024/01/14 14:52:21;;;;;;;42.00;17.23;;;4.50;89.30;;;;;;9179362;19;20019;-72
2024/01/14 14:55:27;;;;;;;37.90;17.00;;;4.60;89.40;;;;;;9177187;19;20038;-73
2024/01/14 14:58:34;;;;;;;39.00;16.30;;;4.60;89.40;;;;;;9178720;19;20034;-72
2024/01/14 15:01:43;;;;;;;40.85;17.33;;;4.60;89.40;;;;;;9176843;19;20037;-72
2024/01/14 15:04:51;;;;;;;36.85;15.68;;;4.60;89.30;;;;;;9176372;19;20011;-72
2024/01/14 15:07:57;;;;;;;38.85;16.38;;;4.60;89.30;;;;;;9168220;19;20022;-72
2024/01/14 15:11:04;;;;;;;44.10;17.40;;;4.60;89.30;;;;;;9176007;19;20024;-72
2024/01/14 15:14:10;;;;;;;39.58;16.67;;;4.60;89.30;;;;;;9177789;19;20026;-72
2024/01/14 15:17:21;;;;;;;41.97;15.98;;;4.60;89.20;;;;;;9169043;19;20018;-72
2024/01/14 15:20:26;;;;;;;40.40;15.52;;;4.60;89.20;;;;;;9176228;19;20014;-72
2024/01/14 15:23:34;;;;;;;41.47;16.52;;;4.60;89.30;;;;;;9177496;19;20014;-72
2024/01/14 15:26:39;;;;;;;44.92;16.85;;;4.60;89.20;;;;;;9176115;19;20102;-74
2024/01/14 15:29:47;;;;;;;40.65;16.85;;;4.60;89.20;;;;;;9174810;19;20021;-72
2024/01/14 15:32:55;;;;;;;37.97;16.15;;;4.60;89.20;;;;;;9176440;19;20128;-72
2024/01/14 15:36:04;;;;;;;39.97;15.55;;;4.60;89.20;;;;;;9176816;19;20022;-71
2024/01/14 15:39:11;;;;;;;39.75;16.02;;;4.60;89.20;;;;;;9176678;19;20448;-71
2024/01/14 15:42:19;;;;;;;40.55;16.58;;;4.60;89.20;;;;;;9172488;19;20388;-72
2024/01/14 15:45:24;;;;;;;37.50;16.10;;;4.60;89.10;;;;;;9175759;19;20025;-72
2024/01/14 15:48:38;;;;;;;33.85;15.05;;;4.50;89.00;;;;;;9175397;19;20018;-72
2024/01/14 15:51:45;;;;;;;34.63;14.45;;;4.50;89.00;;;;;;9175315;19;20023;-72
2024/01/14 15:54:52;;;;;;;29.17;13.30;;;4.50;89.60;;;;;;9172332;19;20087;-72
2024/01/14 15:58:01;;;;;;;29.27;13.70;;;4.50;89.10;;;;;;9173740;19;20754;-71
2024/01/14 16:01:08;;;;;;;30.70;12.60;;;4.40;89.10;;;;;;9173234;19;20053;-72
2024/01/14 16:04:20;;;;;;;28.40;12.02;;;4.40;89.10;;;;;;9175869;19;20022;-72
2024/01/14 16:07:28;;;;;;;25.70;12.55;;;4.40;89.10;;;;;;9173868;19;20022;-72
2024/01/14 16:10:34;;;;;;;26.73;12.38;;;4.40;89.20;;;;;;9175685;19;20017;-72
2024/01/14 16:13:42;;;;;;;34.25;14.75;;;4.40;89.00;;;;;;9173278;19;20567;-71